sensor_id;sensor_type;location;lat;lon;timestamp;P1;durP1;ratioP1;P2;durP2;ratioP2
20511;SDS011;10414;52.074;5.126;2023-02-11T00:01:56;23.42;;;2.90;;
20511;SDS011;10414;52.074;5.126;2023-02-11T00:04:25;15.43;;;3.20;;
20511;SDS011;10414;52.074;5.126;2023-02-11T00:06:52;15.73;;;3.03;;
20511;SDS011;10414;52.074;5.126;2023-02-11T00:09:19;17.92;;;3.00;;
20511;SDS011;10414;52.074;5.126;2023-02-11T00:11:47;23.40;;;3.60;;
20511;SDS011;10414;52.074;5.126;2023-02-11T00:14:14;17.40;;;2.65;;
20511;SDS011;10414;52.074;5.126;2023-02-11T00:16:40;17.70;;;2.92;;
20511;SDS011;10414;52.074;5.126;2023-02-11T00:19:08;18.20;;;3.30;;
20511;SDS011;10414;52.074;5.126;2023-02-11T00:21:35;12.60;;;3.13;;
20511;SDS011;10414;52.074;5.126;2023-02-11T00:24:02;16.02;;;2.78;;
20511;SDS011;10414;52.074;5.126;2023-02-11T00:26:30;20.92;;;3.05;;
20511;SDS011;10414;52.074;5.126;2023-02-11T00:29:00;17.30;;;3.00;;
20511;SDS011;10414;52.074;5.126;2023-02-11T00:31:27;23.35;;;3.22;;
20511;SDS011;10414;52.074;5.126;2023-02-11T00:33:54;17.02;;;3.80;;
20511;SDS011;10414;52.074;5.126;2023-02-11T00:36:22;13.13;;;2.78;;
20511;SDS011;10414;52.074;5.126;2023-02-11T00:38:51;22.20;;;3.22;;
20511;SDS011;10414;52.074;5.126;2023-02-11T00:41:19;22.27;;;3.38;;
20511;SDS011;10414;52.074;5.126;2023-02-11T00:43:47;14.05;;;2.65;;
20511;SDS011;10414;52.074;5.126;2023-02-11T00:46:16;13.15;;;2.90;;
20511;SDS011;10414;52.074;5.126;2023-02-11T00:48:43;17.67;;;3.50;;
20511;SDS011;10414;52.074;5.126;2023-02-11T00:51:10;16.17;;;2.63;;
20511;SDS011;10414;52.074;5.126;2023-02-11T00:53:37;14.35;;;2.90;;
20511;SDS011;10414;52.074;5.126;2023-02-11T00:56:05;18.67;;;3.30;;
20511;SDS011;10414;52.074;5.126;2023-02-11T00:58:32;15.05;;;2.95;;
20511;SDS011;10414;52.074;5.126;2023-02-11T01:00:59;17.40;;;3.35;;
20511;SDS011;10414;52.074;5.126;2023-02-11T01:03:28;15.98;;;2.72;;
20511;SDS011;10414;52.074;5.126;2023-02-11T01:05:55;19.10;;;2.90;;
20511;SDS011;10414;52.074;5.126;2023-02-11T01:08:22;15.40;;;3.55;;
20511;SDS011;10414;52.074;5.126;2023-02-11T01:10:55;13.88;;;3.50;;
20511;SDS011;10414;52.074;5.126;2023-02-11T01:13:22;15.13;;;3.08;;
20511;SDS011;10414;52.074;5.126;2023-02-11T01:15:50;13.60;;;3.50;;
20511;SDS011;10414;52.074;5.126;2023-02-11T01:18:17;10.73;;;3.38;;
20511;SDS011;10414;52.074;5.126;2023-02-11T01:20:45;19.20;;;3.13;;
20511;SDS011;10414;52.074;5.126;2023-02-11T01:23:12;13.35;;;2.70;;
20511;SDS011;10414;52.074;5.126;2023-02-11T01:25:38;21.58;;;3.00;;
20511;SDS011;10414;52.074;5.126;2023-02-11T01:28:05;19.20;;;3.20;;
20511;SDS011;10414;52.074;5.126;2023-02-11T01:30:32;14.82;;;3.75;;
20511;SDS011;10414;52.074;5.126;2023-02-11T01:32:59;21.48;;;3.42;;
20511;SDS011;10414;52.074;5.126;2023-02-11T01:35:26;22.00;;;3.33;;
20511;SDS011;10414;52.074;5.126;2023-02-11T01:37:54;20.88;;;3.58;;
20511;SDS011;10414;52.074;5.126;2023-02-11T01:40:21;14.48;;;3.03;;
20511;SDS011;10414;52.074;5.126;2023-02-11T01:42:48;19.88;;;3.78;;
20511;SDS011;10414;52.074;5.126;2023-02-11T01:48:13;13.43;;;3.50;;
20511;SDS011;10414;52.074;5.126;2023-02-11T01:50:43;21.63;;;3.45;;
20511;SDS011;10414;52.074;5.126;2023-02-11T01:53:14;19.60;;;4.18;;
20511;SDS011;10414;52.074;5.126;2023-02-11T01:56:00;18.50;;;3.58;;
20511;SDS011;10414;52.074;5.126;2023-02-11T01:58:45;16.45;;;2.90;;
20511;SDS011;10414;52.074;5.126;2023-02-11T02:01:15;15.55;;;3.47;;
20511;SDS011;10414;52.074;5.126;2023-02-11T02:03:47;18.83;;;3.38;;
20511;SDS011;10414;52.074;5.126;2023-02-11T02:06:21;20.02;;;3.83;;
20511;SDS011;10414;52.074;5.126;2023-02-11T02:08:58;15.88;;;3.47;;
20511;SDS011;10414;52.074;5.126;2023-02-11T02:11:29;19.40;;;3.60;;
20511;SDS011;10414;52.074;5.126;2023-02-11T02:13:56;18.08;;;3.75;;
20511;SDS011;10414;52.074;5.126;2023-02-11T02:16:25;24.45;;;4.57;;
20511;SDS011;10414;52.074;5.126;2023-02-11T02:18:58;15.18;;;3.45;;
20511;SDS011;10414;52.074;5.126;2023-02-11T02:24:47;15.82;;;3.25;;
20511;SDS011;10414;52.074;5.126;2023-02-11T02:27:29;17.13;;;3.63;;
20511;SDS011;10414;52.074;5.126;2023-02-11T02:33:14;16.30;;;3.38;;
20511;SDS011;10414;52.074;5.126;2023-02-11T02:36:04;18.50;;;3.78;;
20511;SDS011;10414;52.074;5.126;2023-02-11T02:38:36;17.20;;;4.20;;
20511;SDS011;10414;52.074;5.126;2023-02-11T02:41:06;19.63;;;3.83;;
20511;SDS011;10414;52.074;5.126;2023-02-11T02:43:36;19.42;;;4.28;;
20511;SDS011;10414;52.074;5.126;2023-02-11T02:46:12;14.18;;;3.50;;
20511;SDS011;10414;52.074;5.126;2023-02-11T02:48:42;19.90;;;3.72;;
20511;SDS011;10414;52.074;5.126;2023-02-11T02:51:24;16.63;;;4.38;;
20511;SDS011;10414;52.074;5.126;2023-02-11T02:54:19;16.02;;;3.85;;
20511;SDS011;10414;52.074;5.126;2023-02-11T02:57:01;19.58;;;4.35;;
20511;SDS011;10414;52.074;5.126;2023-02-11T02:59:38;21.73;;;4.28;;
20511;SDS011;10414;52.074;5.126;2023-02-11T03:02:19;19.45;;;4.32;;
20511;SDS011;10414;52.074;5.126;2023-02-11T03:04:55;18.75;;;4.10;;
20511;SDS011;10414;52.074;5.126;2023-02-11T03:07:29;17.15;;;5.35;;
20511;SDS011;10414;52.074;5.126;2023-02-11T03:10:04;20.80;;;4.47;;
20511;SDS011;10414;52.074;5.126;2023-02-11T03:12:35;14.32;;;4.80;;
20511;SDS011;10414;52.074;5.126;2023-02-11T03:15:04;21.80;;;5.55;;
20511;SDS011;10414;52.074;5.126;2023-02-11T03:17:32;20.45;;;5.95;;
20511;SDS011;10414;52.074;5.126;2023-02-11T03:20:03;29.00;;;7.45;;
20511;SDS011;10414;52.074;5.126;2023-02-11T03:22:33;23.92;;;6.05;;
20511;SDS011;10414;52.074;5.126;2023-02-11T03:25:02;22.77;;;5.22;;
20511;SDS011;10414;52.074;5.126;2023-02-11T03:27:32;24.10;;;4.78;;
20511;SDS011;10414;52.074;5.126;2023-02-11T03:30:05;23.42;;;6.03;;
20511;SDS011;10414;52.074;5.126;2023-02-11T03:32:37;26.98;;;6.13;;
20511;SDS011;10414;52.074;5.126;2023-02-11T03:35:09;21.33;;;5.78;;
20511;SDS011;10414;52.074;5.126;2023-02-11T03:37:41;22.80;;;6.43;;
20511;SDS011;10414;52.074;5.126;2023-02-11T03:40:16;27.73;;;6.45;;
20511;SDS011;10414;52.074;5.126;2023-02-11T03:42:48;29.40;;;7.22;;
20511;SDS011;10414;52.074;5.126;2023-02-11T03:45:19;20.15;;;6.50;;
20511;SDS011;10414;52.074;5.126;2023-02-11T03:47:48;19.77;;;6.97;;
20511;SDS011;10414;52.074;5.126;2023-02-11T03:52:47;23.02;;;6.68;;
20511;SDS011;10414;52.074;5.126;2023-02-11T03:55:16;25.58;;;6.75;;
20511;SDS011;10414;52.074;5.126;2023-02-11T03:57:45;31.77;;;8.43;;
20511;SDS011;10414;52.074;5.126;2023-02-11T04:00:13;24.23;;;6.70;;
20511;SDS011;10414;52.074;5.126;2023-02-11T04:02:40;22.52;;;6.57;;
20511;SDS011;10414;52.074;5.126;2023-02-11T04:05:08;32.05;;;7.22;;
20511;SDS011;10414;52.074;5.126;2023-02-11T04:07:39;27.65;;;7.43;;
20511;SDS011;10414;52.074;5.126;2023-02-11T04:10:06;21.27;;;7.18;;
20511;SDS011;10414;52.074;5.126;2023-02-11T04:12:33;27.75;;;7.55;;
20511;SDS011;10414;52.074;5.126;2023-02-11T04:15:00;23.77;;;6.93;;
20511;SDS011;10414;52.074;5.126;2023-02-11T04:17:27;27.42;;;7.00;;
20511;SDS011;10414;52.074;5.126;2023-02-11T04:19:54;30.70;;;8.68;;
20511;SDS011;10414;52.074;5.126;2023-02-11T04:22:21;23.63;;;6.95;;
20511;SDS011;10414;52.074;5.126;2023-02-11T04:24:49;25.75;;;7.45;;
20511;SDS011;10414;52.074;5.126;2023-02-11T04:27:16;32.38;;;7.15;;
20511;SDS011;10414;52.074;5.126;2023-02-11T04:29:43;24.70;;;7.78;;
20511;SDS011;10414;52.074;5.126;2023-02-11T04:32:09;20.25;;;7.03;;
20511;SDS011;10414;52.074;5.126;2023-02-11T04:34:37;28.52;;;8.05;;
20511;SDS011;10414;52.074;5.126;2023-02-11T04:37:04;28.45;;;7.30;;
20511;SDS011;10414;52.074;5.126;2023-02-11T04:39:31;26.50;;;9.63;;
20511;SDS011;10414;52.074;5.126;2023-02-11T04:41:59;28.45;;;7.70;;
20511;SDS011;10414;52.074;5.126;2023-02-11T04:44:26;25.13;;;7.70;;
20511;SDS011;10414;52.074;5.126;2023-02-11T04:46:53;29.17;;;7.43;;
20511;SDS011;10414;52.074;5.126;2023-02-11T04:49:20;32.67;;;7.85;;
20511;SDS011;10414;52.074;5.126;2023-02-11T04:51:47;35.40;;;8.63;;
20511;SDS011;10414;52.074;5.126;2023-02-11T04:54:14;29.05;;;9.20;;
20511;SDS011;10414;52.074;5.126;2023-02-11T04:56:41;20.75;;;7.63;;
20511;SDS011;10414;52.074;5.126;2023-02-11T04:59:10;23.35;;;7.63;;
20511;SDS011;10414;52.074;5.126;2023-02-11T05:01:37;26.73;;;8.07;;
20511;SDS011;10414;52.074;5.126;2023-02-11T05:04:04;25.15;;;7.82;;
20511;SDS011;10414;52.074;5.126;2023-02-11T05:06:31;25.80;;;8.73;;
20511;SDS011;10414;52.074;5.126;2023-02-11T05:08:58;27.20;;;8.23;;
20511;SDS011;10414;52.074;5.126;2023-02-11T05:11:25;33.03;;;9.07;;
20511;SDS011;10414;52.074;5.126;2023-02-11T05:13:52;27.05;;;8.43;;
20511;SDS011;10414;52.074;5.126;2023-02-11T05:16:20;25.85;;;7.70;;
20511;SDS011;10414;52.074;5.126;2023-02-11T05:18:47;27.55;;;8.20;;
20511;SDS011;10414;52.074;5.126;2023-02-11T05:21:15;22.77;;;7.43;;
20511;SDS011;10414;52.074;5.126;2023-02-11T05:23:43;29.67;;;9.10;;
20511;SDS011;10414;52.074;5.126;2023-02-11T05:26:10;28.88;;;8.35;;
20511;SDS011;10414;52.074;5.126;2023-02-11T05:28:38;27.52;;;8.63;;
20511;SDS011;10414;52.074;5.126;2023-02-11T05:31:05;25.10;;;7.53;;
20511;SDS011;10414;52.074;5.126;2023-02-11T05:33:34;27.48;;;8.57;;
20511;SDS011;10414;52.074;5.126;2023-02-11T05:36:02;32.72;;;8.27;;
20511;SDS011;10414;52.074;5.126;2023-02-11T05:38:30;25.48;;;8.35;;
20511;SDS011;10414;52.074;5.126;2023-02-11T05:40:57;24.42;;;8.02;;
20511;SDS011;10414;52.074;5.126;2023-02-11T05:43:24;28.10;;;9.18;;
20511;SDS011;10414;52.074;5.126;2023-02-11T05:45:51;25.92;;;8.10;;
20511;SDS011;10414;52.074;5.126;2023-02-11T05:48:18;29.10;;;8.85;;
20511;SDS011;10414;52.074;5.126;2023-02-11T05:50:46;23.77;;;8.25;;
20511;SDS011;10414;52.074;5.126;2023-02-11T05:53:13;27.13;;;8.40;;
20511;SDS011;10414;52.074;5.126;2023-02-11T05:55:40;24.15;;;8.65;;
20511;SDS011;10414;52.074;5.126;2023-02-11T05:58:07;30.98;;;8.73;;
20511;SDS011;10414;52.074;5.126;2023-02-11T06:00:34;27.17;;;9.05;;
20511;SDS011;10414;52.074;5.126;2023-02-11T06:03:01;28.10;;;9.05;;
20511;SDS011;10414;52.074;5.126;2023-02-11T06:05:28;30.08;;;9.50;;
20511;SDS011;10414;52.074;5.126;2023-02-11T06:07:57;29.70;;;9.30;;
20511;SDS011;10414;52.074;5.126;2023-02-11T06:10:23;26.60;;;9.57;;
20511;SDS011;10414;52.074;5.126;2023-02-11T06:12:50;29.35;;;9.35;;
20511;SDS011;10414;52.074;5.126;2023-02-11T06:15:17;28.15;;;9.70;;
20511;SDS011;10414;52.074;5.126;2023-02-11T06:17:44;29.02;;;9.75;;
20511;SDS011;10414;52.074;5.126;2023-02-11T06:20:11;31.60;;;9.73;;
20511;SDS011;10414;52.074;5.126;2023-02-11T06:22:38;26.67;;;9.30;;
20511;SDS011;10414;52.074;5.126;2023-02-11T06:25:06;30.55;;;9.13;;
20511;SDS011;10414;52.074;5.126;2023-02-11T06:27:35;34.05;;;10.02;;
20511;SDS011;10414;52.074;5.126;2023-02-11T06:30:02;29.70;;;9.50;;
20511;SDS011;10414;52.074;5.126;2023-02-11T06:32:29;26.08;;;9.98;;
20511;SDS011;10414;52.074;5.126;2023-02-11T06:34:56;33.20;;;10.90;;
20511;SDS011;10414;52.074;5.126;2023-02-11T06:37:23;27.65;;;9.60;;
20511;SDS011;10414;52.074;5.126;2023-02-11T06:39:49;29.08;;;9.75;;
20511;SDS011;10414;52.074;5.126;2023-02-11T06:42:18;33.25;;;10.75;;
20511;SDS011;10414;52.074;5.126;2023-02-11T06:44:44;29.55;;;10.20;;
20511;SDS011;10414;52.074;5.126;2023-02-11T06:47:11;34.97;;;10.63;;
20511;SDS011;10414;52.074;5.126;2023-02-11T06:49:38;34.10;;;9.88;;
20511;SDS011;10414;52.074;5.126;2023-02-11T06:52:05;29.80;;;10.10;;
20511;SDS011;10414;52.074;5.126;2023-02-11T06:54:32;34.17;;;10.45;;
20511;SDS011;10414;52.074;5.126;2023-02-11T06:56:58;33.15;;;10.32;;
20511;SDS011;10414;52.074;5.126;2023-02-11T06:59:27;28.95;;;10.60;;
20511;SDS011;10414;52.074;5.126;2023-02-11T07:01:53;30.77;;;10.65;;
20511;SDS011;10414;52.074;5.126;2023-02-11T07:04:20;37.00;;;11.57;;
20511;SDS011;10414;52.074;5.126;2023-02-11T07:06:47;40.10;;;11.63;;
20511;SDS011;10414;52.074;5.126;2023-02-11T07:09:14;38.63;;;11.90;;
20511;SDS011;10414;52.074;5.126;2023-02-11T07:11:41;35.28;;;10.57;;
20511;SDS011;10414;52.074;5.126;2023-02-11T07:14:08;33.83;;;12.20;;
20511;SDS011;10414;52.074;5.126;2023-02-11T07:16:38;38.90;;;12.38;;
20511;SDS011;10414;52.074;5.126;2023-02-11T07:19:05;40.20;;;13.48;;
20511;SDS011;10414;52.074;5.126;2023-02-11T07:21:32;35.35;;;13.70;;
20511;SDS011;10414;52.074;5.126;2023-02-11T07:23:59;37.35;;;12.07;;
20511;SDS011;10414;52.074;5.126;2023-02-11T07:26:26;37.65;;;12.02;;
20511;SDS011;10414;52.074;5.126;2023-02-11T07:28:53;29.05;;;11.80;;
20511;SDS011;10414;52.074;5.126;2023-02-11T07:31:21;36.55;;;13.18;;
20511;SDS011;10414;52.074;5.126;2023-02-11T07:33:52;33.85;;;13.00;;
20511;SDS011;10414;52.074;5.126;2023-02-11T07:36:20;35.10;;;13.15;;
20511;SDS011;10414;52.074;5.126;2023-02-11T07:38:47;35.50;;;12.50;;
20511;SDS011;10414;52.074;5.126;2023-02-11T07:41:14;34.58;;;11.73;;
20511;SDS011;10414;52.074;5.126;2023-02-11T07:43:43;28.80;;;13.20;;
20511;SDS011;10414;52.074;5.126;2023-02-11T07:46:12;40.58;;;12.82;;
20511;SDS011;10414;52.074;5.126;2023-02-11T07:48:40;35.88;;;12.20;;
20511;SDS011;10414;52.074;5.126;2023-02-11T07:51:09;31.35;;;11.82;;
20511;SDS011;10414;52.074;5.126;2023-02-11T07:53:38;38.78;;;12.45;;
20511;SDS011;10414;52.074;5.126;2023-02-11T07:56:06;26.42;;;10.55;;
20511;SDS011;10414;52.074;5.126;2023-02-11T07:58:34;35.92;;;11.85;;
20511;SDS011;10414;52.074;5.126;2023-02-11T08:01:02;29.25;;;12.10;;
20511;SDS011;10414;52.074;5.126;2023-02-11T08:03:30;35.55;;;12.07;;
20511;SDS011;10414;52.074;5.126;2023-02-11T08:05:57;37.95;;;12.57;;
20511;SDS011;10414;52.074;5.126;2023-02-11T08:10:55;30.67;;;11.40;;
20511;SDS011;10414;52.074;5.126;2023-02-11T08:13:22;35.63;;;13.40;;
20511;SDS011;10414;52.074;5.126;2023-02-11T08:15:51;28.98;;;11.57;;
20511;SDS011;10414;52.074;5.126;2023-02-11T08:18:17;35.85;;;12.55;;
20511;SDS011;10414;52.074;5.126;2023-02-11T08:20:44;38.10;;;13.52;;
20511;SDS011;10414;52.074;5.126;2023-02-11T08:23:11;35.95;;;13.13;;
20511;SDS011;10414;52.074;5.126;2023-02-11T08:25:39;32.95;;;12.85;;
20511;SDS011;10414;52.074;5.126;2023-02-11T08:28:06;31.88;;;12.23;;
20511;SDS011;10414;52.074;5.126;2023-02-11T08:30:33;35.35;;;13.07;;
20511;SDS011;10414;52.074;5.126;2023-02-11T08:33:00;33.60;;;12.68;;
20511;SDS011;10414;52.074;5.126;2023-02-11T08:35:27;35.22;;;13.07;;
20511;SDS011;10414;52.074;5.126;2023-02-11T08:37:54;34.08;;;12.25;;
20511;SDS011;10414;52.074;5.126;2023-02-11T08:40:21;36.88;;;13.18;;
20511;SDS011;10414;52.074;5.126;2023-02-11T08:42:50;29.98;;;12.68;;
20511;SDS011;10414;52.074;5.126;2023-02-11T08:45:17;32.20;;;12.32;;
20511;SDS011;10414;52.074;5.126;2023-02-11T08:47:44;33.10;;;12.85;;
20511;SDS011;10414;52.074;5.126;2023-02-11T08:50:11;30.98;;;12.70;;
20511;SDS011;10414;52.074;5.126;2023-02-11T08:52:37;34.80;;;13.30;;
20511;SDS011;10414;52.074;5.126;2023-02-11T08:55:05;36.75;;;13.30;;
20511;SDS011;10414;52.074;5.126;2023-02-11T08:57:42;35.03;;;13.32;;
20511;SDS011;10414;52.074;5.126;2023-02-11T09:00:11;34.17;;;13.18;;
20511;SDS011;10414;52.074;5.126;2023-02-11T09:02:39;33.33;;;13.60;;
20511;SDS011;10414;52.074;5.126;2023-02-11T09:05:06;33.45;;;12.30;;
20511;SDS011;10414;52.074;5.126;2023-02-11T09:07:33;30.77;;;13.05;;
20511;SDS011;10414;52.074;5.126;2023-02-11T09:10:00;31.88;;;12.45;;
20511;SDS011;10414;52.074;5.126;2023-02-11T09:12:27;36.53;;;12.85;;
20511;SDS011;10414;52.074;5.126;2023-02-11T09:14:54;29.20;;;12.43;;
20511;SDS011;10414;52.074;5.126;2023-02-11T09:17:22;34.55;;;12.93;;
20511;SDS011;10414;52.074;5.126;2023-02-11T09:19:49;30.88;;;12.18;;
20511;SDS011;10414;52.074;5.126;2023-02-11T09:22:16;28.08;;;13.77;;
20511;SDS011;10414;52.074;5.126;2023-02-11T09:24:43;33.55;;;13.43;;
20511;SDS011;10414;52.074;5.126;2023-02-11T09:27:09;31.98;;;13.05;;
20511;SDS011;10414;52.074;5.126;2023-02-11T09:29:36;30.17;;;13.45;;
20511;SDS011;10414;52.074;5.126;2023-02-11T09:32:03;24.33;;;11.70;;
20511;SDS011;10414;52.074;5.126;2023-02-11T09:34:32;27.85;;;12.43;;
20511;SDS011;10414;52.074;5.126;2023-02-11T09:36:58;27.00;;;12.43;;
20511;SDS011;10414;52.074;5.126;2023-02-11T09:39:25;32.05;;;13.77;;
20511;SDS011;10414;52.074;5.126;2023-02-11T09:41:55;34.60;;;14.82;;
20511;SDS011;10414;52.074;5.126;2023-02-11T09:44:41;34.75;;;14.43;;
20511;SDS011;10414;52.074;5.126;2023-02-11T09:47:14;31.05;;;13.35;;
20511;SDS011;10414;52.074;5.126;2023-02-11T09:49:49;30.50;;;13.13;;
20511;SDS011;10414;52.074;5.126;2023-02-11T09:52:20;27.70;;;12.70;;
20511;SDS011;10414;52.074;5.126;2023-02-11T09:54:55;30.73;;;12.98;;
20511;SDS011;10414;52.074;5.126;2023-02-11T09:57:24;31.05;;;13.27;;
20511;SDS011;10414;52.074;5.126;2023-02-11T09:59:56;35.25;;;13.55;;
20511;SDS011;10414;52.074;5.126;2023-02-11T10:02:23;27.15;;;12.20;;
20511;SDS011;10414;52.074;5.126;2023-02-11T10:05:04;29.85;;;12.88;;
20511;SDS011;10414;52.074;5.126;2023-02-11T10:07:44;35.30;;;14.35;;
20511;SDS011;10414;52.074;5.126;2023-02-11T10:10:19;28.83;;;12.85;;
20511;SDS011;10414;52.074;5.126;2023-02-11T10:15:35;25.80;;;11.30;;
20511;SDS011;10414;52.074;5.126;2023-02-11T10:18:17;31.27;;;13.18;;
20511;SDS011;10414;52.074;5.126;2023-02-11T10:20:59;26.02;;;11.68;;
20511;SDS011;10414;52.074;5.126;2023-02-11T10:23:34;29.60;;;12.65;;
20511;SDS011;10414;52.074;5.126;2023-02-11T10:28:35;27.00;;;11.85;;
20511;SDS011;10414;52.074;5.126;2023-02-11T10:31:05;26.45;;;12.00;;
20511;SDS011;10414;52.074;5.126;2023-02-11T10:33:35;24.83;;;12.13;;
20511;SDS011;10414;52.074;5.126;2023-02-11T10:36:11;28.25;;;12.95;;
20511;SDS011;10414;52.074;5.126;2023-02-11T10:38:39;26.20;;;11.95;;
20511;SDS011;10414;52.074;5.126;2023-02-11T10:41:08;28.60;;;12.50;;
20511;SDS011;10414;52.074;5.126;2023-02-11T10:43:35;30.90;;;12.63;;
20511;SDS011;10414;52.074;5.126;2023-02-11T10:46:02;28.83;;;12.48;;
20511;SDS011;10414;52.074;5.126;2023-02-11T10:48:41;25.05;;;11.35;;
20511;SDS011;10414;52.074;5.126;2023-02-11T10:51:17;26.70;;;12.10;;
20511;SDS011;10414;52.074;5.126;2023-02-11T10:53:47;25.83;;;11.80;;
20511;SDS011;10414;52.074;5.126;2023-02-11T10:56:19;25.20;;;11.80;;
20511;SDS011;10414;52.074;5.126;2023-02-11T10:58:56;22.63;;;11.70;;
20511;SDS011;10414;52.074;5.126;2023-02-11T11:01:36;25.30;;;11.70;;
20511;SDS011;10414;52.074;5.126;2023-02-11T11:04:21;24.38;;;11.38;;
20511;SDS011;10414;52.074;5.126;2023-02-11T11:07:10;24.45;;;11.00;;
20511;SDS011;10414;52.074;5.126;2023-02-11T11:09:44;20.73;;;10.18;;
20511;SDS011;10414;52.074;5.126;2023-02-11T11:12:26;20.10;;;9.52;;
20511;SDS011;10414;52.074;5.126;2023-02-11T11:14:56;25.90;;;11.73;;
20511;SDS011;10414;52.074;5.126;2023-02-11T11:17:24;20.13;;;10.05;;
20511;SDS011;10414;52.074;5.126;2023-02-11T11:19:53;18.25;;;9.23;;
20511;SDS011;10414;52.074;5.126;2023-02-11T11:22:39;30.52;;;15.18;;
20511;SDS011;10414;52.074;5.126;2023-02-11T11:25:19;21.42;;;10.30;;
20511;SDS011;10414;52.074;5.126;2023-02-11T11:27:47;23.42;;;11.35;;
20511;SDS011;10414;52.074;5.126;2023-02-11T11:30:15;21.00;;;9.95;;
20511;SDS011;10414;52.074;5.126;2023-02-11T11:32:43;22.38;;;9.90;;
20511;SDS011;10414;52.074;5.126;2023-02-11T11:35:19;21.90;;;9.65;;
20511;SDS011;10414;52.074;5.126;2023-02-11T11:37:52;17.25;;;9.32;;
20511;SDS011;10414;52.074;5.126;2023-02-11T11:40:22;22.52;;;9.02;;
20511;SDS011;10414;52.074;5.126;2023-02-11T11:43:14;20.80;;;9.65;;
20511;SDS011;10414;52.074;5.126;2023-02-11T11:45:51;19.35;;;9.68;;
20511;SDS011;10414;52.074;5.126;2023-02-11T11:48:21;21.65;;;9.55;;
20511;SDS011;10414;52.074;5.126;2023-02-11T11:50:51;18.20;;;10.05;;
20511;SDS011;10414;52.074;5.126;2023-02-11T11:53:23;16.58;;;9.43;;
20511;SDS011;10414;52.074;5.126;2023-02-11T11:55:59;22.50;;;10.27;;
20511;SDS011;10414;52.074;5.126;2023-02-11T11:58:30;17.95;;;9.38;;
20511;SDS011;10414;52.074;5.126;2023-02-11T12:01:00;21.30;;;9.00;;
20511;SDS011;10414;52.074;5.126;2023-02-11T12:03:42;15.38;;;6.88;;
20511;SDS011;10414;52.074;5.126;2023-02-11T12:06:47;12.57;;;5.80;;
20511;SDS011;10414;52.074;5.126;2023-02-11T12:09:25;13.90;;;5.97;;
20511;SDS011;10414;52.074;5.126;2023-02-11T12:12:05;13.65;;;5.97;;
20511;SDS011;10414;52.074;5.126;2023-02-11T12:14:42;12.02;;;5.00;;
20511;SDS011;10414;52.074;5.126;2023-02-11T12:17:21;12.80;;;5.25;;
20511;SDS011;10414;52.074;5.126;2023-02-11T12:22:37;10.48;;;5.60;;
20511;SDS011;10414;52.074;5.126;2023-02-11T12:25:20;10.05;;;5.38;;
20511;SDS011;10414;52.074;5.126;2023-02-11T12:27:58;9.27;;;5.43;;
20511;SDS011;10414;52.074;5.126;2023-02-11T12:30:48;11.60;;;5.70;;
20511;SDS011;10414;52.074;5.126;2023-02-11T12:33:25;12.25;;;5.43;;
20511;SDS011;10414;52.074;5.126;2023-02-11T12:36:07;10.35;;;5.20;;
20511;SDS011;10414;52.074;5.126;2023-02-11T12:38:45;8.85;;;4.75;;
20511;SDS011;10414;52.074;5.126;2023-02-11T12:41:29;14.00;;;5.53;;
20511;SDS011;10414;52.074;5.126;2023-02-11T12:44:24;9.65;;;4.70;;
20511;SDS011;10414;52.074;5.126;2023-02-11T12:47:02;9.55;;;4.93;;
20511;SDS011;10414;52.074;5.126;2023-02-11T12:49:44;9.55;;;5.07;;
20511;SDS011;10414;52.074;5.126;2023-02-11T12:52:35;8.57;;;5.00;;
20511;SDS011;10414;52.074;5.126;2023-02-11T12:55:14;10.82;;;5.30;;
20511;SDS011;10414;52.074;5.126;2023-02-11T12:57:48;10.45;;;5.03;;
20511;SDS011;10414;52.074;5.126;2023-02-11T13:00:18;9.90;;;5.28;;
20511;SDS011;10414;52.074;5.126;2023-02-11T13:02:49;9.05;;;4.50;;
20511;SDS011;10414;52.074;5.126;2023-02-11T13:05:22;11.70;;;5.03;;
20511;SDS011;10414;52.074;5.126;2023-02-11T13:07:53;10.48;;;5.20;;
20511;SDS011;10414;52.074;5.126;2023-02-11T13:10:28;9.65;;;5.00;;
20511;SDS011;10414;52.074;5.126;2023-02-11T13:13:00;11.45;;;5.15;;
20511;SDS011;10414;52.074;5.126;2023-02-11T13:15:42;10.93;;;4.88;;
20511;SDS011;10414;52.074;5.126;2023-02-11T13:18:16;11.18;;;5.68;;
20511;SDS011;10414;52.074;5.126;2023-02-11T13:21:15;11.10;;;5.45;;
20511;SDS011;10414;52.074;5.126;2023-02-11T13:23:53;13.25;;;5.50;;
20511;SDS011;10414;52.074;5.126;2023-02-11T13:26:27;11.30;;;5.40;;
20511;SDS011;10414;52.074;5.126;2023-02-11T13:29:04;9.30;;;5.03;;
20511;SDS011;10414;52.074;5.126;2023-02-11T13:31:54;10.95;;;4.88;;
20511;SDS011;10414;52.074;5.126;2023-02-11T13:34:25;10.95;;;5.07;;
20511;SDS011;10414;52.074;5.126;2023-02-11T13:37:17;16.20;;;5.32;;
20511;SDS011;10414;52.074;5.126;2023-02-11T13:39:54;9.30;;;4.82;;
20511;SDS011;10414;52.074;5.126;2023-02-11T13:42:25;10.15;;;5.10;;
20511;SDS011;10414;52.074;5.126;2023-02-11T13:44:54;10.80;;;4.70;;
20511;SDS011;10414;52.074;5.126;2023-02-11T13:47:24;12.40;;;5.13;;
20511;SDS011;10414;52.074;5.126;2023-02-11T13:49:54;11.25;;;5.18;;
20511;SDS011;10414;52.074;5.126;2023-02-11T13:52:23;8.77;;;4.70;;
20511;SDS011;10414;52.074;5.126;2023-02-11T13:54:52;10.57;;;4.75;;
20511;SDS011;10414;52.074;5.126;2023-02-11T13:57:31;9.45;;;4.57;;
20511;SDS011;10414;52.074;5.126;2023-02-11T14:00:05;9.13;;;4.97;;
20511;SDS011;10414;52.074;5.126;2023-02-11T14:03:14;12.13;;;4.72;;
20511;SDS011;10414;52.074;5.126;2023-02-11T14:06:10;13.80;;;5.28;;
20511;SDS011;10414;52.074;5.126;2023-02-11T14:08:57;10.35;;;4.03;;
20511;SDS011;10414;52.074;5.126;2023-02-11T14:11:44;10.52;;;4.88;;
20511;SDS011;10414;52.074;5.126;2023-02-11T14:14:20;10.38;;;4.72;;
20511;SDS011;10414;52.074;5.126;2023-02-11T14:19:56;10.40;;;4.93;;
20511;SDS011;10414;52.074;5.126;2023-02-11T14:22:24;13.43;;;5.63;;
20511;SDS011;10414;52.074;5.126;2023-02-11T14:24:54;10.70;;;5.30;;
20511;SDS011;10414;52.074;5.126;2023-02-11T14:27:29;12.88;;;5.30;;
20511;SDS011;10414;52.074;5.126;2023-02-11T14:33:00;12.45;;;5.30;;
20511;SDS011;10414;52.074;5.126;2023-02-11T14:35:42;11.52;;;5.40;;
20511;SDS011;10414;52.074;5.126;2023-02-11T14:38:18;11.80;;;5.40;;
20511;SDS011;10414;52.074;5.126;2023-02-11T14:40:53;10.10;;;5.35;;
20511;SDS011;10414;52.074;5.126;2023-02-11T14:43:25;15.10;;;5.25;;
20511;SDS011;10414;52.074;5.126;2023-02-11T14:45:56;13.38;;;5.25;;
20511;SDS011;10414;52.074;5.126;2023-02-11T14:48:28;13.27;;;6.60;;
20511;SDS011;10414;52.074;5.126;2023-02-11T14:50:57;15.05;;;6.60;;
20511;SDS011;10414;52.074;5.126;2023-02-11T14:53:28;17.83;;;7.47;;
20511;SDS011;10414;52.074;5.126;2023-02-11T14:55:57;14.80;;;6.28;;
20511;SDS011;10414;52.074;5.126;2023-02-11T14:58:24;13.07;;;6.07;;
20511;SDS011;10414;52.074;5.126;2023-02-11T15:00:54;12.90;;;5.60;;
20511;SDS011;10414;52.074;5.126;2023-02-11T15:03:29;10.68;;;5.18;;
20511;SDS011;10414;52.074;5.126;2023-02-11T15:05:58;10.85;;;5.10;;
20511;SDS011;10414;52.074;5.126;2023-02-11T15:08:26;11.20;;;5.22;;
20511;SDS011;10414;52.074;5.126;2023-02-11T15:10:55;10.50;;;5.05;;
20511;SDS011;10414;52.074;5.126;2023-02-11T15:13:24;10.63;;;4.97;;
20511;SDS011;10414;52.074;5.126;2023-02-11T15:15:56;13.15;;;4.95;;
20511;SDS011;10414;52.074;5.126;2023-02-11T15:18:28;13.25;;;5.13;;
20511;SDS011;10414;52.074;5.126;2023-02-11T15:21:00;9.93;;;5.20;;
20511;SDS011;10414;52.074;5.126;2023-02-11T15:23:28;10.48;;;5.32;;